createdAt,value
2018-12-17T00:00:14.235Z,2.14
2018-12-17T00:01:14.258Z,2.09
2018-12-17T00:03:16.271Z,2.12
2018-12-17T00:04:16.290Z,2.07
2018-12-17T00:06:18.337Z,2.14
2018-12-17T00:07:18.323Z,2.11
2018-12-17T00:09:20.932Z,2.18
2018-12-17T00:10:20.544Z,2.11
2018-12-17T00:12:22.542Z,2.08
2018-12-17T00:13:22.564Z,2.07
2018-12-17T00:15:24.572Z,2.09
2018-12-17T00:16:24.594Z,2.11
2018-12-17T00:18:26.595Z,2.20
2018-12-17T00:19:26.620Z,2.15
2018-12-17T00:21:28.642Z,2.20
2018-12-17T00:22:28.650Z,2.25
2018-12-17T00:24:20.579Z,2.30
2018-12-17T00:25:20.599Z,2.36
2018-12-17T00:27:22.608Z,2.30
2018-12-17T00:28:22.630Z,2.36
2018-12-17T00:30:24.630Z,2.29
2018-12-17T00:31:24.654Z,2.22
2018-12-17T00:33:26.674Z,2.30
2018-12-17T00:34:26.678Z,2.32
2018-12-17T00:36:28.679Z,2.33
2018-12-17T00:37:28.699Z,2.29
2018-12-17T00:39:31.754Z,2.33
2018-12-17T00:40:31.741Z,2.30
2018-12-17T00:42:33.738Z,2.29
2018-12-17T00:43:33.762Z,2.33
2018-12-17T00:45:35.770Z,2.26
2018-12-17T00:46:35.788Z,2.30
2018-12-17T00:48:37.800Z,2.23
2018-12-17T00:49:37.822Z,2.15
2018-12-17T00:51:39.845Z,2.18
2018-12-17T00:52:39.849Z,2.15
2018-12-17T00:54:31.782Z,2.20
2018-12-17T00:55:31.798Z,2.15
2018-12-17T00:57:33.798Z,2.15
2018-12-17T00:58:33.822Z,2.23
2018-12-17T01:00:35.832Z,2.12
2018-12-17T01:01:35.849Z,2.15
2018-12-17T01:03:37.873Z,2.44
2018-12-17T01:04:37.880Z,2.44
2018-12-17T01:06:39.881Z,2.41
2018-12-17T01:07:39.904Z,2.41
2018-12-17T01:09:41.908Z,2.43
2018-12-17T01:10:41.928Z,2.44
2018-12-17T01:12:43.937Z,2.55
2018-12-17T01:13:43.955Z,2.41
2018-12-17T01:15:45.984Z,2.58
2018-12-17T01:16:45.986Z,2.53
2018-12-17T01:18:47.991Z,2.51
2018-12-17T01:19:48.010Z,2.56
2018-12-17T01:21:50.017Z,2.38
2018-12-17T01:22:50.042Z,2.36
2018-12-17T01:24:41.975Z,2.37
2018-12-17T01:25:41.991Z,2.47
2018-12-17T01:27:34.291Z,2.50
2018-12-17T01:28:34.139Z,2.41
2018-12-17T01:30:36.142Z,2.48
2018-12-17T01:31:36.166Z,2.43
2018-12-17T01:33:38.207Z,2.44
2018-12-17T01:34:38.191Z,2.36
2018-12-17T01:36:40.198Z,2.29
2018-12-17T01:37:40.221Z,2.37
2018-12-17T01:39:42.221Z,2.38
2018-12-17T01:40:42.244Z,2.36
2018-12-17T01:42:44.247Z,2.38
2018-12-17T01:43:44.271Z,2.40
2018-12-17T01:45:36.413Z,2.48
2018-12-17T01:46:36.418Z,2.48
2018-12-17T01:48:38.419Z,2.62
2018-12-17T01:49:38.448Z,2.65
2018-12-17T01:51:40.450Z,2.65
2018-12-17T01:52:40.473Z,2.65
2018-12-17T01:54:32.405Z,2.56
2018-12-17T01:55:32.427Z,2.47
2018-12-17T01:57:34.463Z,2.47
2018-12-17T01:58:34.467Z,2.53
2018-12-17T02:00:36.471Z,2.55
2018-12-17T02:01:36.492Z,2.56
2018-12-17T02:03:28.730Z,2.68
2018-12-17T02:04:28.640Z,2.69
2018-12-17T02:06:30.650Z,2.61
2018-12-17T02:07:30.673Z,2.63
2018-12-17T02:09:32.673Z,2.62
2018-12-17T02:10:32.696Z,2.58
2018-12-17T02:12:34.698Z,2.65
2018-12-17T02:13:34.720Z,2.66
2018-12-17T02:15:36.740Z,2.65
2018-12-17T02:16:36.743Z,2.68
2018-12-17T02:18:38.747Z,2.61
2018-12-17T02:19:38.770Z,2.61
2018-12-17T02:21:30.901Z,2.62
2018-12-17T02:22:30.923Z,2.71
2018-12-17T02:24:22.855Z,2.71
2018-12-17T02:25:22.874Z,2.63
2018-12-17T02:27:24.903Z,2.68
2018-12-17T02:28:24.907Z,2.68
2018-12-17T02:30:17.032Z,2.76
2018-12-17T02:31:17.050Z,2.69
2018-12-17T02:33:19.077Z,2.73
2018-12-17T02:34:19.082Z,2.79
2018-12-17T02:36:21.085Z,2.68
2018-12-17T02:37:21.108Z,2.71
2018-12-17T02:39:23.108Z,2.63
2018-12-17T02:40:23.130Z,2.69
2018-12-17T02:42:25.133Z,2.62
2018-12-17T02:43:25.154Z,2.66
2018-12-17T02:45:27.175Z,2.65
2018-12-17T02:46:27.184Z,2.66
2018-12-17T02:48:29.188Z,2.76
2018-12-17T02:49:29.206Z,2.73
2018-12-17T02:51:31.212Z,2.71
2018-12-17T02:52:31.232Z,2.73
2018-12-17T02:54:23.167Z,2.71
2018-12-17T02:55:23.184Z,2.66
2018-12-17T02:57:25.221Z,2.68
2018-12-17T02:58:25.225Z,2.66
2018-12-17T03:00:27.221Z,2.66
2018-12-17T03:01:27.240Z,2.66
2018-12-17T03:03:29.240Z,2.65
2018-12-17T03:04:29.265Z,2.62
2018-12-17T03:06:31.266Z,2.56
2018-12-17T03:07:31.293Z,2.53
2018-12-17T03:09:33.311Z,2.44
2018-12-17T03:10:33.313Z,2.44
2018-12-17T03:12:35.314Z,2.45
2018-12-17T03:13:35.337Z,2.38
2018-12-17T03:15:27.499Z,2.45
2018-12-17T03:16:27.484Z,2.47
2018-12-17T03:18:29.492Z,2.56
2018-12-17T03:19:29.515Z,2.55
2018-12-17T03:21:21.637Z,2.66
2018-12-17T03:22:21.657Z,2.65
2018-12-17T03:24:13.592Z,2.71
2018-12-17T03:25:13.617Z,2.65
2018-12-17T03:27:05.755Z,2.59
2018-12-17T03:28:05.762Z,2.66
2018-12-17T03:30:07.763Z,2.68
2018-12-17T03:31:07.787Z,2.71
2018-12-17T03:33:09.796Z,2.74
2018-12-17T03:34:09.811Z,2.73
2018-12-17T03:36:12.297Z,2.83
2018-12-17T03:37:11.838Z,2.89
2018-12-17T03:39:13.880Z,2.87
2018-12-17T03:40:13.980Z,2.87
2018-12-17T03:42:15.879Z,2.94
2018-12-17T03:43:15.904Z,2.95
2018-12-17T03:45:17.932Z,2.94
2018-12-17T03:46:17.926Z,2.87
2018-12-17T03:48:19.931Z,2.98
2018-12-17T03:49:19.955Z,2.94
2018-12-17T03:51:21.956Z,2.77
2018-12-17T03:52:21.979Z,2.80
2018-12-17T03:54:13.912Z,2.76
2018-12-17T03:55:13.937Z,2.89
2018-12-17T03:57:15.959Z,2.83
2018-12-17T03:58:15.961Z,2.89
2018-12-17T04:00:17.964Z,3.02
2018-12-17T04:01:17.988Z,2.90
2018-12-17T04:03:19.986Z,3.02
2018-12-17T04:04:20.007Z,3.01
2018-12-17T04:06:22.009Z,2.83
2018-12-17T04:07:22.031Z,2.84
2018-12-17T04:09:24.058Z,2.77
2018-12-17T04:10:24.065Z,2.74
2018-12-17T04:12:26.064Z,2.83
2018-12-17T04:13:26.091Z,2.73
2018-12-17T04:15:28.094Z,2.87
2018-12-17T04:16:28.114Z,2.84
2018-12-17T04:18:30.118Z,2.86
2018-12-17T04:19:30.140Z,2.68
2018-12-17T04:21:32.141Z,2.69
2018-12-17T04:22:32.165Z,2.69
2018-12-17T04:24:24.099Z,2.83
2018-12-17T04:25:24.120Z,2.83
2018-12-17T04:27:26.157Z,2.94
2018-12-17T04:28:26.165Z,2.84
2018-12-17T04:30:28.163Z,2.86
2018-12-17T04:31:28.186Z,2.86
2018-12-17T04:33:30.262Z,2.86
2018-12-17T04:34:30.284Z,2.87
2018-12-17T04:36:32.428Z,2.86
2018-12-17T04:37:32.454Z,2.83
2018-12-17T04:39:34.628Z,2.97
2018-12-17T04:40:34.635Z,2.94
2018-12-17T04:42:36.772Z,2.83
2018-12-17T04:43:36.793Z,2.86
2018-12-17T04:45:38.947Z,2.87
2018-12-17T04:46:38.969Z,2.87
2018-12-17T04:48:41.163Z,3.04
2018-12-17T04:49:41.138Z,3.02
2018-12-17T04:51:43.304Z,3.07
2018-12-17T04:52:43.309Z,3.05
2018-12-17T04:54:35.314Z,3.05
2018-12-17T04:55:35.336Z,3.01
2018-12-17T04:57:37.484Z,3.12
2018-12-17T04:58:37.507Z,2.97
2018-12-17T05:00:39.666Z,3.07
2018-12-17T05:01:39.687Z,3.07
2018-12-17T05:03:41.867Z,3.12
2018-12-17T05:04:41.851Z,3.07
2018-12-17T05:06:43.999Z,3.05
2018-12-17T05:07:44.022Z,3.10
2018-12-17T05:09:46.175Z,3.13
2018-12-17T05:10:46.193Z,3.13
2018-12-17T05:12:48.444Z,3.10
2018-12-17T05:13:48.468Z,2.95
2018-12-17T05:15:50.611Z,3.02
2018-12-17T05:16:50.635Z,3.07
2018-12-17T05:18:53.119Z,3.10
2018-12-17T05:19:52.805Z,3.15
2018-12-17T05:21:54.841Z,3.07
2018-12-17T05:22:54.843Z,3.02
2018-12-17T05:24:57.038Z,3.08
2018-12-17T05:25:57.062Z,3.12
2018-12-17T05:27:59.064Z,3.07
2018-12-17T05:28:59.087Z,3.07
2018-12-17T05:31:01.094Z,3.02
2018-12-17T05:32:01.119Z,3.12
2018-12-17T05:34:03.142Z,2.99
2018-12-17T05:35:03.141Z,3.01
2018-12-17T05:37:05.143Z,3.04
2018-12-17T05:38:05.168Z,3.08
2018-12-17T05:40:07.176Z,3.05
2018-12-17T05:41:07.199Z,2.98
2018-12-17T05:43:09.201Z,3.02
2018-12-17T05:44:09.225Z,2.99
2018-12-17T05:46:11.254Z,2.98
2018-12-17T05:47:11.266Z,3.02
2018-12-17T05:49:13.268Z,3.12
2018-12-17T05:50:13.293Z,3.08
2018-12-17T05:52:15.317Z,3.01
2018-12-17T05:53:15.337Z,3.01
2018-12-17T05:55:17.339Z,3.04
2018-12-17T05:56:17.366Z,2.99
2018-12-17T05:58:19.886Z,3.12
2018-12-17T05:59:19.384Z,3.07
2018-12-17T06:01:21.395Z,3.02
2018-12-17T06:02:21.419Z,2.98
2018-12-17T06:04:13.354Z,3.01
2018-12-17T06:05:13.376Z,2.92
2018-12-17T06:07:15.381Z,2.87
2018-12-17T06:08:15.402Z,2.86
2018-12-17T06:10:17.414Z,2.80
2018-12-17T06:11:17.432Z,2.83
2018-12-17T06:13:19.443Z,2.76
2018-12-17T06:14:19.462Z,2.69
2018-12-17T06:16:11.606Z,2.76
2018-12-17T06:17:11.611Z,2.73
2018-12-17T06:19:13.622Z,2.69
2018-12-17T06:20:13.699Z,2.63
2018-12-17T06:22:17.610Z,2.66
2018-12-17T06:23:16.177Z,2.65
2018-12-17T06:25:18.181Z,2.62
2018-12-17T06:26:18.198Z,2.74
2018-12-17T06:28:20.215Z,2.69
2018-12-17T06:29:20.233Z,2.66
2018-12-17T06:31:22.233Z,2.68
2018-12-17T06:32:22.255Z,2.65
2018-12-17T06:34:14.188Z,2.62
2018-12-17T06:35:14.206Z,2.59
2018-12-17T06:37:16.220Z,2.58
2018-12-17T06:38:16.239Z,2.59
2018-12-17T06:40:18.274Z,2.65
2018-12-17T06:41:18.264Z,2.66
2018-12-17T06:43:20.264Z,2.73
2018-12-17T06:44:20.292Z,2.63
2018-12-17T06:46:22.296Z,2.68
2018-12-17T06:47:22.318Z,2.71
2018-12-17T06:49:24.333Z,2.71
2018-12-17T06:50:24.350Z,2.73
2018-12-17T06:52:26.364Z,2.68
2018-12-17T06:53:26.387Z,2.68
2018-12-17T06:55:28.391Z,2.69
2018-12-17T06:56:28.417Z,2.84
2018-12-17T06:58:30.435Z,2.81
2018-12-17T06:59:30.439Z,2.81
2018-12-17T07:01:32.445Z,2.81
2018-12-17T07:02:32.466Z,2.81
2018-12-17T07:04:24.401Z,2.83
2018-12-17T07:05:24.422Z,2.73
2018-12-17T07:07:26.436Z,2.86
2018-12-17T07:08:26.454Z,2.86
2018-12-17T07:10:28.497Z,2.95
2018-12-17T07:11:28.487Z,2.90
2018-12-17T07:13:30.493Z,2.86
2018-12-17T07:14:36.305Z,2.81
2018-12-17T07:16:32.518Z,2.86
2018-12-17T07:17:32.549Z,2.86
2018-12-17T07:19:34.550Z,2.94
2018-12-17T07:20:34.569Z,2.97
2018-12-17T07:22:36.612Z,2.89
2018-12-17T07:23:36.603Z,2.95
2018-12-17T07:25:38.617Z,3.04
2018-12-17T07:26:38.643Z,3.01
2018-12-17T07:28:40.648Z,2.94
2018-12-17T07:29:40.669Z,2.89
2018-12-17T07:31:42.676Z,2.94
2018-12-17T07:32:42.698Z,2.86
2018-12-17T07:34:34.676Z,2.87
2018-12-17T07:35:34.654Z,2.89
2018-12-17T07:37:36.678Z,2.98
2018-12-17T07:38:36.700Z,3.05
2018-12-17T07:40:28.857Z,3.01
2018-12-17T07:41:28.849Z,3.04
2018-12-17T07:43:20.975Z,3.05
2018-12-17T07:44:20.998Z,3.04
2018-12-17T07:46:23.003Z,3.07
2018-12-17T07:47:23.088Z,3.05
2018-12-17T07:49:25.031Z,3.10
2018-12-17T07:50:25.052Z,3.08
2018-12-17T07:52:27.094Z,3.04
2018-12-17T07:53:27.084Z,3.02
2018-12-17T07:55:19.205Z,3.10
2018-12-17T07:56:19.231Z,3.08
2018-12-17T07:58:21.236Z,3.10
2018-12-17T07:59:21.257Z,2.98
2018-12-17T08:01:23.267Z,2.95
2018-12-17T08:02:23.283Z,2.97
2018-12-17T08:04:15.262Z,2.84
2018-12-17T08:05:15.253Z,2.94
2018-12-17T08:07:17.252Z,2.89
2018-12-17T08:08:17.276Z,2.97
2018-12-17T08:10:19.281Z,2.90
2018-12-17T08:11:19.303Z,3.04
2018-12-17T08:13:21.310Z,3.15
2018-12-17T08:14:21.331Z,3.13
2018-12-17T08:16:23.374Z,3.20
2018-12-17T08:17:23.356Z,3.30
2018-12-17T08:19:15.482Z,3.28
2018-12-17T08:20:15.503Z,3.30
2018-12-17T08:22:17.545Z,3.30
2018-12-17T08:23:17.536Z,3.33
2018-12-17T08:25:19.535Z,3.25
2018-12-17T08:26:19.559Z,3.26
2018-12-17T08:28:21.578Z,3.28
2018-12-17T08:29:21.598Z,3.20
2018-12-17T08:31:23.601Z,3.31
2018-12-17T08:32:23.624Z,3.30
2018-12-17T08:34:15.589Z,3.28
2018-12-17T08:35:15.580Z,3.25
2018-12-17T08:37:17.588Z,3.23
2018-12-17T08:38:17.610Z,3.22
2018-12-17T08:40:19.616Z,3.10
2018-12-17T08:41:19.638Z,3.13
2018-12-17T08:43:22.131Z,3.10
2018-12-17T08:44:21.674Z,3.15
2018-12-17T08:46:23.708Z,3.19
2018-12-17T08:47:23.702Z,3.25
2018-12-17T08:49:25.701Z,3.41
2018-12-17T08:50:25.727Z,3.33
2018-12-17T08:52:17.883Z,3.45
2018-12-17T08:53:17.878Z,3.41
2018-12-17T08:55:19.878Z,3.46
2018-12-17T08:56:19.949Z,3.44
2018-12-17T08:58:21.945Z,3.49
2018-12-17T08:59:21.936Z,3.59
2018-12-17T09:01:23.941Z,3.70
2018-12-17T09:02:23.966Z,3.72
2018-12-17T09:04:15.932Z,3.71
2018-12-17T09:05:15.921Z,3.71
2018-12-17T09:07:17.947Z,3.74
2018-12-17T09:08:17.953Z,3.72
2018-12-17T09:10:10.081Z,3.68
2018-12-17T09:11:10.103Z,3.71
2018-12-17T09:13:12.117Z,3.68
2018-12-17T09:14:12.133Z,3.75
2018-12-17T09:16:14.174Z,3.72
2018-12-17T09:17:14.163Z,3.71
2018-12-17T09:19:16.172Z,3.82
2018-12-17T09:20:16.192Z,3.86
2018-12-17T09:22:18.199Z,3.88
2018-12-17T09:23:18.224Z,3.86
2018-12-17T09:25:20.231Z,3.89
2018-12-17T09:26:20.254Z,3.82
2018-12-17T09:28:22.309Z,3.89
2018-12-17T09:29:22.290Z,3.99
2018-12-17T09:31:14.425Z,3.98
2018-12-17T09:32:14.450Z,4.02
2018-12-17T09:34:06.416Z,3.95
2018-12-17T09:35:06.405Z,3.95
2018-12-17T09:37:08.413Z,4.11
2018-12-17T09:38:08.439Z,4.07
2018-12-17T09:40:10.439Z,4.04
2018-12-17T09:41:10.463Z,4.00
2018-12-17T09:43:12.468Z,4.17
2018-12-17T09:44:12.493Z,4.11
2018-12-17T09:46:14.532Z,4.21
2018-12-17T09:47:14.521Z,4.20
2018-12-17T09:49:06.661Z,4.21
2018-12-17T09:50:06.684Z,4.35
2018-12-17T09:52:08.689Z,4.34
2018-12-17T09:53:08.709Z,4.32
2018-12-17T09:55:10.722Z,4.36
2018-12-17T09:56:10.745Z,4.36
2018-12-17T09:58:12.862Z,4.34
2018-12-17T09:59:12.780Z,4.35
2018-12-17T10:01:04.915Z,4.31
2018-12-17T10:02:04.928Z,4.29
2018-12-17T10:04:06.981Z,4.32
2018-12-17T10:05:06.968Z,4.34
2018-12-17T10:07:08.970Z,4.32
2018-12-17T10:08:08.995Z,4.28
2018-12-17T10:10:11.037Z,4.32
2018-12-17T10:11:11.027Z,4.36
2018-12-17T10:13:13.028Z,4.35
2018-12-17T10:14:13.052Z,4.32
2018-12-17T10:16:15.089Z,4.44
2018-12-17T10:17:15.084Z,4.49
2018-12-17T10:19:17.090Z,4.57
2018-12-17T10:20:17.113Z,4.59
2018-12-17T10:22:19.123Z,4.59
2018-12-17T10:23:19.144Z,4.67
2018-12-17T10:25:21.153Z,4.67
2018-12-17T10:26:21.174Z,4.69
2018-12-17T10:28:23.218Z,4.84
2018-12-17T10:29:23.206Z,4.90
2018-12-17T10:31:25.222Z,4.91
2018-12-17T10:32:25.248Z,4.96
2018-12-17T10:34:17.186Z,4.84
2018-12-17T10:35:17.208Z,4.91
2018-12-17T10:37:09.339Z,5.02
2018-12-17T10:38:09.361Z,4.97
2018-12-17T10:40:11.410Z,5.02
2018-12-17T10:41:11.402Z,4.94
2018-12-17T10:43:13.409Z,4.97
2018-12-17T10:44:13.433Z,4.99
2018-12-17T10:46:15.437Z,5.04
2018-12-17T10:47:15.461Z,4.96
2018-12-17T10:49:17.470Z,4.97
2018-12-17T10:50:17.497Z,4.94
2018-12-17T10:52:20.551Z,4.97
2018-12-17T10:53:20.549Z,5.02
2018-12-17T10:55:22.554Z,5.04
2018-12-17T10:56:22.578Z,5.05
2018-12-17T10:58:24.620Z,4.99
2018-12-17T10:59:24.612Z,4.93
2018-12-17T11:01:26.626Z,5.02
2018-12-17T11:02:26.648Z,5.01
2018-12-17T11:04:18.585Z,4.93
2018-12-17T11:05:18.610Z,4.96
2018-12-17T11:07:20.616Z,4.94
2018-12-17T11:08:20.640Z,5.04
2018-12-17T11:10:22.680Z,5.04
2018-12-17T11:11:22.673Z,5.04
2018-12-17T11:13:24.683Z,5.08
2018-12-17T11:14:24.709Z,5.04
2018-12-17T11:16:26.715Z,5.08
2018-12-17T11:17:26.741Z,5.17
2018-12-17T11:19:28.746Z,5.12
2018-12-17T11:20:28.778Z,5.15
2018-12-17T11:22:30.892Z,5.20
2018-12-17T11:23:30.882Z,5.15
2018-12-17T11:25:33.024Z,5.15
2018-12-17T11:26:33.047Z,5.17
2018-12-17T11:28:35.198Z,5.20
2018-12-17T11:29:35.217Z,5.19
2018-12-17T11:31:37.391Z,5.14
2018-12-17T11:32:37.387Z,5.22
2018-12-17T11:34:29.427Z,5.24
2018-12-17T11:35:29.419Z,5.20
2018-12-17T11:37:31.566Z,5.33
2018-12-17T11:38:31.592Z,5.29
2018-12-17T11:40:33.772Z,5.29
2018-12-17T11:41:33.761Z,5.35
2018-12-17T11:43:36.010Z,5.22
2018-12-17T11:44:36.035Z,5.33
2018-12-17T11:46:38.295Z,5.35
2018-12-17T11:47:38.319Z,5.37
2018-12-17T11:49:40.452Z,5.42
2018-12-17T11:50:40.480Z,5.48
2018-12-17T11:52:42.763Z,5.63
2018-12-17T11:53:42.755Z,5.69
2018-12-17T11:55:44.897Z,6.43
2018-12-17T11:56:44.922Z,6.82
2018-12-17T11:58:48.014Z,7.94
2018-12-17T11:59:48.036Z,8.58
2018-12-17T12:01:50.162Z,9.06
2018-12-17T12:02:50.189Z,8.96
2018-12-17T12:04:43.207Z,8.80
2018-12-17T12:05:43.230Z,8.60
2018-12-17T12:07:45.394Z,8.54
2018-12-17T12:08:45.418Z,8.52
2018-12-17T12:10:47.565Z,8.61
2018-12-17T12:11:47.588Z,8.52
2018-12-17T12:13:49.732Z,8.45
2018-12-17T12:14:49.756Z,8.29
2018-12-17T12:16:52.094Z,8.04
2018-12-17T12:17:51.933Z,7.92
2018-12-17T12:19:54.077Z,7.58
2018-12-17T12:20:54.102Z,7.51
2018-12-17T12:22:56.285Z,7.18
2018-12-17T12:23:56.276Z,7.24
2018-12-17T12:25:58.420Z,6.99
2018-12-17T12:26:58.448Z,6.94
2018-12-17T12:29:00.586Z,6.89
2018-12-17T12:30:00.611Z,6.83
2018-12-17T12:32:02.858Z,6.58
2018-12-17T12:33:02.885Z,6.63
2018-12-17T12:35:05.070Z,6.57
2018-12-17T12:36:05.048Z,6.53
2018-12-17T12:38:07.201Z,6.68
2018-12-17T12:39:07.223Z,6.60
2018-12-17T12:41:09.367Z,6.61
2018-12-17T12:42:09.393Z,6.63
2018-12-17T12:44:01.399Z,6.61
2018-12-17T12:45:01.425Z,6.63
2018-12-17T12:47:03.605Z,6.60
2018-12-17T12:48:03.602Z,6.63
2018-12-17T12:50:05.743Z,6.71
2018-12-17T12:51:05.768Z,6.71
2018-12-17T12:53:07.911Z,6.60
2018-12-17T12:54:07.938Z,6.61
2018-12-17T12:56:10.081Z,6.55
2018-12-17T12:57:10.105Z,6.64
2018-12-17T12:59:12.298Z,6.60
2018-12-17T13:00:12.276Z,6.39
2018-12-17T13:02:14.423Z,6.32
2018-12-17T13:03:14.448Z,6.13
2018-12-17T13:05:16.592Z,6.13
2018-12-17T13:06:16.616Z,5.98
2018-12-17T13:08:18.865Z,5.98
2018-12-17T13:09:18.935Z,6.06
2018-12-17T13:11:21.080Z,6.06
2018-12-17T13:12:21.065Z,6.01
2018-12-17T13:14:13.066Z,6.06
2018-12-17T13:15:13.100Z,6.08
2018-12-17T13:17:15.277Z,6.10
2018-12-17T13:18:15.273Z,6.08
2018-12-17T13:20:17.409Z,6.05
2018-12-17T13:21:17.441Z,6.02
2018-12-17T13:23:19.591Z,6.11
2018-12-17T13:24:19.605Z,6.11
2018-12-17T13:26:21.753Z,6.19
2018-12-17T13:27:21.782Z,6.27
2018-12-17T13:29:24.050Z,6.05
2018-12-17T13:30:23.947Z,6.11
2018-12-17T13:32:26.199Z,6.10
2018-12-17T13:33:26.229Z,5.95
2018-12-17T13:35:28.367Z,5.99
2018-12-17T13:36:28.389Z,5.88
2018-12-17T13:38:30.541Z,5.78
2018-12-17T13:39:30.565Z,5.74
2018-12-17T13:41:32.610Z,5.65
2018-12-17T13:42:32.612Z,5.74
2018-12-17T13:44:24.540Z,5.74
2018-12-17T13:45:24.561Z,5.74
2018-12-17T13:47:26.744Z,5.75
2018-12-17T13:48:26.732Z,5.75
2018-12-17T13:50:30.195Z,5.75
2018-12-17T13:51:28.901Z,5.67
2018-12-17T13:53:31.151Z,5.70
2018-12-17T13:54:31.178Z,5.69
2018-12-17T13:56:33.317Z,5.84
2018-12-17T13:57:33.343Z,5.85
2018-12-17T13:59:35.524Z,5.69
2018-12-17T14:00:35.517Z,5.70
2018-12-17T14:02:37.665Z,5.74
2018-12-17T14:03:37.690Z,5.74
2018-12-17T14:05:39.836Z,5.74
2018-12-17T14:06:39.861Z,5.69
2018-12-17T14:08:42.000Z,5.77
2018-12-17T14:09:42.029Z,5.74
2018-12-17T14:11:44.172Z,5.69
2018-12-17T14:12:44.198Z,5.65
2018-12-17T14:14:36.204Z,5.63
2018-12-17T14:15:36.229Z,5.62
2018-12-17T14:17:38.383Z,5.65
2018-12-17T14:18:38.406Z,5.62
2018-12-17T14:20:40.554Z,5.73
2018-12-17T14:21:40.578Z,5.63
2018-12-17T14:23:42.737Z,5.59
2018-12-17T14:24:42.769Z,5.56
2018-12-17T14:26:45.001Z,5.55
2018-12-17T14:27:45.025Z,5.63
2018-12-17T14:29:47.188Z,5.63
2018-12-17T14:30:47.184Z,5.66
2018-12-17T14:32:49.334Z,5.60
2018-12-17T14:33:49.361Z,5.56
2018-12-17T14:35:51.505Z,5.58
2018-12-17T14:36:51.529Z,5.58
2018-12-17T14:38:53.670Z,5.49
2018-12-17T14:39:53.694Z,5.40
2018-12-17T14:41:55.847Z,5.40
2018-12-17T14:42:55.873Z,5.40
2018-12-17T14:44:47.875Z,5.45
2018-12-17T14:45:47.900Z,5.45
2018-12-17T14:47:50.048Z,5.35
2018-12-17T14:48:50.073Z,5.37
2018-12-17T14:50:52.249Z,5.32
2018-12-17T14:51:52.245Z,5.32
2018-12-17T14:53:54.388Z,5.35
2018-12-17T14:54:54.413Z,5.41
2018-12-17T14:56:56.595Z,5.35
2018-12-17T14:57:56.584Z,5.32
2018-12-17T14:59:58.732Z,5.35
2018-12-17T15:00:58.755Z,5.38
2018-12-17T15:03:00.903Z,5.35
2018-12-17T15:04:00.929Z,5.38
2018-12-17T15:06:03.073Z,5.44
2018-12-17T15:07:03.096Z,5.38
2018-12-17T15:09:05.274Z,5.26
2018-12-17T15:10:05.264Z,5.23
2018-12-17T15:12:07.411Z,5.32
2018-12-17T15:13:07.435Z,5.26
2018-12-17T15:15:09.584Z,5.30
2018-12-17T15:16:09.605Z,5.23
2018-12-17T15:18:11.752Z,5.30
2018-12-17T15:19:11.775Z,5.32
2018-12-17T15:21:14.044Z,5.24
2018-12-17T15:22:14.051Z,5.15
2018-12-17T15:24:06.053Z,5.14
2018-12-17T15:25:06.098Z,5.11
2018-12-17T15:27:08.368Z,5.15
2018-12-17T15:28:08.255Z,5.26
2018-12-17T15:30:10.399Z,5.29
2018-12-17T15:31:10.430Z,5.19
2018-12-17T15:33:12.670Z,5.26
2018-12-17T15:34:12.694Z,5.29
2018-12-17T15:36:14.838Z,5.24
2018-12-17T15:37:14.864Z,5.23
2018-12-17T15:39:17.037Z,5.27
2018-12-17T15:40:17.036Z,5.23
2018-12-17T15:42:19.183Z,5.26
2018-12-17T15:43:19.206Z,5.23
2018-12-17T15:45:21.365Z,5.20
2018-12-17T15:46:21.389Z,5.20
2018-12-17T15:48:23.528Z,5.20
2018-12-17T15:49:23.551Z,5.20
2018-12-17T15:51:25.717Z,5.23
2018-12-17T15:52:25.722Z,5.14
2018-12-17T15:54:17.727Z,5.06
2018-12-17T15:55:17.749Z,5.04
2018-12-17T15:57:19.897Z,5.04
2018-12-17T15:58:19.925Z,4.99
2018-12-17T16:00:22.066Z,5.05
2018-12-17T16:01:22.092Z,5.02
2018-12-17T16:03:24.363Z,5.04
2018-12-17T16:04:24.367Z,5.01
2018-12-17T16:06:26.512Z,5.02
2018-12-17T16:07:26.548Z,5.01
2018-12-17T16:09:28.681Z,5.06
2018-12-17T16:10:28.707Z,4.96
2018-12-17T16:12:32.226Z,4.99
2018-12-17T16:13:32.251Z,4.94
2018-12-17T16:15:34.370Z,4.91
2018-12-17T16:16:34.379Z,4.83
2018-12-17T16:18:36.527Z,4.83
2018-12-17T16:19:36.552Z,4.84
2018-12-17T16:21:38.806Z,4.79
2018-12-17T16:22:38.723Z,4.86
2018-12-17T16:24:30.730Z,4.90
2018-12-17T16:25:30.772Z,4.87
2018-12-17T16:27:32.899Z,4.96
2018-12-17T16:28:32.922Z,4.86
2018-12-17T16:30:35.070Z,4.96
2018-12-17T16:31:35.099Z,4.88
2018-12-17T16:33:37.259Z,4.90
2018-12-17T16:34:37.262Z,4.87
2018-12-17T16:36:39.415Z,4.75
2018-12-17T16:37:39.439Z,4.72
2018-12-17T16:39:41.583Z,4.88
2018-12-17T16:40:41.606Z,4.88
2018-12-17T16:42:43.755Z,4.79
2018-12-17T16:43:43.778Z,4.74
2018-12-17T16:45:45.941Z,4.71
2018-12-17T16:46:45.953Z,4.71
2018-12-17T16:48:48.097Z,4.77
2018-12-17T16:49:48.115Z,4.79
2018-12-17T16:51:50.262Z,4.86
2018-12-17T16:52:50.287Z,4.84
2018-12-17T16:54:42.295Z,4.75
2018-12-17T16:55:42.318Z,4.77
2018-12-17T16:57:44.723Z,4.68
2018-12-17T16:58:44.488Z,4.71
2018-12-17T17:00:46.646Z,4.88
2018-12-17T17:01:46.670Z,4.84
2018-12-17T17:03:48.841Z,4.86
2018-12-17T17:04:48.850Z,4.94
2018-12-17T17:06:50.985Z,5.02
2018-12-17T17:07:51.009Z,4.94
2018-12-17T17:09:53.148Z,4.99
2018-12-17T17:10:53.172Z,5.04
2018-12-17T17:12:55.337Z,5.01
2018-12-17T17:13:55.341Z,4.97
2018-12-17T17:15:57.509Z,4.87
2018-12-17T17:16:57.512Z,4.86
2018-12-17T17:18:59.661Z,4.86
2018-12-17T17:19:59.684Z,4.86
2018-12-17T17:22:01.843Z,4.86
2018-12-17T17:23:01.862Z,4.87
2018-12-17T17:24:53.864Z,4.83
2018-12-17T17:25:53.889Z,4.75
2018-12-17T17:27:56.051Z,4.79
2018-12-17T17:28:56.060Z,4.69
2018-12-17T17:30:58.213Z,4.75
2018-12-17T17:31:58.236Z,4.69
2018-12-17T17:34:00.489Z,4.83
2018-12-17T17:35:00.509Z,4.68
2018-12-17T17:37:02.646Z,4.74
2018-12-17T17:38:02.672Z,4.69
2018-12-17T17:40:04.823Z,4.68
2018-12-17T17:41:04.845Z,4.83
2018-12-17T17:43:07.008Z,4.88
2018-12-17T17:44:07.014Z,4.93
2018-12-17T17:46:09.268Z,4.99
2018-12-17T17:47:09.292Z,4.93
2018-12-17T17:49:11.432Z,5.08
2018-12-17T17:50:11.462Z,5.06
2018-12-17T17:52:13.613Z,5.05
2018-12-17T17:53:13.633Z,5.06
2018-12-17T17:55:15.837Z,5.22
2018-12-17T17:56:17.499Z,5.22
2018-12-17T17:58:17.945Z,5.14
2018-12-17T17:59:17.967Z,5.14
2018-12-17T18:01:20.114Z,5.32
2018-12-17T18:02:20.138Z,5.32
2018-12-17T18:04:12.150Z,5.35
2018-12-17T18:05:12.171Z,5.26
2018-12-17T18:07:14.395Z,5.24
2018-12-17T18:08:14.343Z,5.26
2018-12-17T18:10:16.490Z,5.26
2018-12-17T18:11:16.515Z,5.30
2018-12-17T18:13:18.674Z,5.35
2018-12-17T18:14:18.683Z,5.24
2018-12-17T18:16:20.831Z,5.27
2018-12-17T18:17:20.855Z,5.33
2018-12-17T18:19:23.115Z,5.27
2018-12-17T18:20:23.126Z,5.29
2018-12-17T18:22:25.271Z,5.38
2018-12-17T18:23:25.299Z,5.41
2018-12-17T18:25:27.571Z,5.30
2018-12-17T18:26:27.575Z,5.32
2018-12-17T18:28:29.714Z,5.30
2018-12-17T18:29:29.742Z,5.30
2018-12-17T18:31:31.884Z,5.26
2018-12-17T18:32:31.910Z,5.29
2018-12-17T18:34:23.919Z,5.30
2018-12-17T18:35:23.944Z,5.48
2018-12-17T18:37:26.111Z,5.42
2018-12-17T18:38:26.119Z,5.49
2018-12-17T18:40:28.268Z,5.52
2018-12-17T18:41:28.285Z,5.56
2018-12-17T18:43:30.534Z,5.56
2018-12-17T18:44:30.560Z,5.56
2018-12-17T18:46:32.706Z,5.56
2018-12-17T18:47:32.732Z,5.56
2018-12-17T18:49:34.960Z,5.52
2018-12-17T18:50:34.908Z,5.56
2018-12-17T18:52:37.048Z,5.56
2018-12-17T18:53:37.071Z,5.56
2018-12-17T18:55:39.216Z,5.56
2018-12-17T18:56:39.244Z,5.60
2018-12-17T18:58:41.392Z,5.56
2018-12-17T18:59:41.421Z,5.56
2018-12-17T19:01:43.553Z,5.52
2018-12-17T19:02:43.579Z,5.62
2018-12-17T19:04:35.590Z,5.63
2018-12-17T19:05:35.614Z,5.55
2018-12-17T19:07:37.777Z,5.63
2018-12-17T19:08:37.785Z,5.58
2018-12-17T19:10:39.943Z,5.60
2018-12-17T19:11:39.963Z,5.58
2018-12-17T19:13:42.101Z,5.62
2018-12-17T19:14:42.125Z,5.63
2018-12-17T19:16:44.277Z,5.67
2018-12-17T19:17:44.298Z,5.67
2018-12-17T19:19:46.458Z,5.69
2018-12-17T19:20:46.465Z,5.73
2018-12-17T19:22:48.616Z,5.70
2018-12-17T19:23:48.646Z,5.67
2018-12-17T19:25:50.788Z,5.75
2018-12-17T19:26:50.812Z,5.74
2018-12-17T19:28:52.958Z,5.73
2018-12-17T19:29:52.982Z,5.74
2018-12-17T19:31:55.124Z,5.85
2018-12-17T19:32:55.149Z,5.88
2018-12-17T19:34:47.175Z,5.83
2018-12-17T19:35:47.198Z,5.85
2018-12-17T19:37:49.348Z,5.87
2018-12-17T19:38:49.360Z,5.83
2018-12-17T19:40:51.502Z,5.87
2018-12-17T19:41:51.545Z,5.85
2018-12-17T19:43:53.724Z,5.87
2018-12-17T19:44:53.744Z,5.93
2018-12-17T19:46:55.849Z,5.85
2018-12-17T19:47:55.874Z,5.84
2018-12-17T19:49:58.026Z,5.88
2018-12-17T19:50:58.041Z,5.85
2018-12-17T19:53:00.310Z,5.85
2018-12-17T19:54:00.309Z,5.88
2018-12-17T19:56:03.463Z,5.83
2018-12-17T19:57:03.490Z,5.87
2018-12-17T19:59:05.648Z,5.87
2018-12-17T20:00:05.673Z,5.83
2018-12-17T20:02:07.817Z,5.88